Terminal Aerodrome Forecast
Issued by NWS

Home | Current Version | Previous Version | Text Only | Print | Product List | Glossary On
Versions: 1 2 3 4 5 6 7 8 9 10 11 12 13 14 15 16 17 18 19 20 21 22 23 24 25 26 27 28 29 30 31 32 33 34
000
FTAK31 PANC 281728
TAFACD
TAF
PACD 281728Z 2818/2918 02010KT P6SM BKN015
      TEMPO 2818/2822 SCT015 BKN040
     FM282200 02010KT P6SM SCT025 BKN045
     FM291200 10007KT 6SM BR SCT010 OVC025=

USA.gov is the U.S. government's official web portal to all federal, state and local government web resources and services.